createdAt,value
2022-12-16T00:01:31.095Z,-8.2
2022-12-16T00:03:37.152Z,-8.17
2022-12-16T00:05:44.620Z,-8.14
2022-12-16T00:07:50.995Z,-8.11
2022-12-16T00:09:59.068Z,-8.09
2022-12-16T00:12:04.254Z,-8.1
2022-12-16T00:14:10.000Z,-8.08
2022-12-16T00:16:15.392Z,-8.07
2022-12-16T00:18:21.365Z,-8.06
2022-12-16T00:20:26.340Z,-8.05
2022-12-16T00:22:31.633Z,-8.05
2022-12-16T00:24:36.860Z,-8.03
2022-12-16T00:26:42.111Z,-8.02
2022-12-16T00:28:47.456Z,-8.02
2022-12-16T00:30:56.550Z,-8
2022-12-16T00:33:01.697Z,-7.98
2022-12-16T00:35:06.990Z,-7.98
2022-12-16T00:37:12.278Z,-7.96
2022-12-16T00:39:17.646Z,-7.95
2022-12-16T00:41:22.838Z,-7.95
2022-12-16T00:43:28.086Z,-7.92
2022-12-16T00:45:36.658Z,-7.9
2022-12-16T00:47:43.856Z,-7.87
2022-12-16T00:49:49.478Z,-7.85
2022-12-16T00:51:56.683Z,-7.82
2022-12-16T00:54:02.047Z,-7.81
2022-12-16T00:56:07.441Z,-7.78
2022-12-16T00:58:13.667Z,-7.76
2022-12-16T01:00:18.815Z,-7.7
2022-12-16T01:02:24.255Z,-7.65
2022-12-16T01:04:30.534Z,-7.63
2022-12-16T01:06:35.679Z,-7.61
2022-12-16T01:08:40.838Z,-7.6
2022-12-16T01:10:46.045Z,-7.58
2022-12-16T01:12:52.317Z,-7.56
2022-12-16T01:14:59.462Z,-7.56
2022-12-16T01:17:04.632Z,-7.56
2022-12-16T01:19:10.206Z,-7.55
2022-12-16T01:21:15.490Z,-7.56
2022-12-16T01:23:20.811Z,-7.53
2022-12-16T01:25:26.269Z,-7.52
2022-12-16T01:27:31.408Z,-7.5
2022-12-16T01:29:36.518Z,-7.5
2022-12-16T01:31:41.870Z,-7.46
2022-12-16T01:33:47.324Z,-7.43
2022-12-16T01:35:55.001Z,-7.44
2022-12-16T01:38:00.773Z,-7.43
2022-12-16T01:40:08.966Z,-7.38
2022-12-16T01:42:14.172Z,-7.27
2022-12-16T01:44:19.491Z,-7.22
2022-12-16T01:46:25.140Z,-7.2
2022-12-16T01:48:30.413Z,-7.16
2022-12-16T01:50:35.509Z,-7.1
2022-12-16T01:52:40.705Z,-7.05
2022-12-16T01:54:45.874Z,-7.06
2022-12-16T01:56:52.407Z,-7.06
2022-12-16T01:58:59.505Z,-7.01
2022-12-16T02:01:05.127Z,-7
2022-12-16T02:03:10.416Z,-6.99
2022-12-16T02:05:16.085Z,-7
2022-12-16T02:07:21.715Z,-6.91
2022-12-16T02:09:26.869Z,-6.89
2022-12-16T02:11:32.199Z,-6.87
2022-12-16T02:13:37.555Z,-6.88
2022-12-16T02:15:42.762Z,-6.86
2022-12-16T02:17:48.061Z,-6.74
2022-12-16T02:19:54.140Z,-6.64
2022-12-16T02:22:00.371Z,-6.54
2022-12-16T02:24:05.785Z,-6.54
2022-12-16T02:26:11.685Z,-6.51
2022-12-16T02:28:16.946Z,-6.5
2022-12-16T02:30:22.353Z,-6.49
2022-12-16T02:32:27.871Z,-6.44
2022-12-16T02:34:33.160Z,-6.41
2022-12-16T02:36:38.353Z,-6.37
2022-12-16T02:38:43.567Z,-6.35
2022-12-16T02:40:48.930Z,-6.35
2022-12-16T02:42:57.571Z,-6.35
2022-12-16T02:45:02.827Z,-6.33
2022-12-16T02:47:07.916Z,-6.3
2022-12-16T02:49:13.053Z,-6.3
2022-12-16T02:51:18.316Z,-6.3
2022-12-16T02:53:23.733Z,-6.29
2022-12-16T02:55:28.849Z,-6.31
2022-12-16T02:57:34.180Z,-6.29
2022-12-16T02:59:39.325Z,-6.3
2022-12-16T03:01:44.499Z,-6.33
2022-12-16T03:03:50.455Z,-6.34
2022-12-16T03:05:56.792Z,-6.32
2022-12-16T03:08:01.958Z,-6.32
2022-12-16T03:10:07.137Z,-6.32
2022-12-16T03:12:12.469Z,-6.26
2022-12-16T03:14:17.661Z,-6.23
2022-12-16T03:16:23.089Z,-6.21
2022-12-16T03:18:28.492Z,-6.19
2022-12-16T03:20:33.698Z,-6.18
2022-12-16T03:22:38.855Z,-6.17
2022-12-16T03:24:44.000Z,-6.11
2022-12-16T03:26:49.101Z,-6.08
2022-12-16T03:28:54.314Z,-6.05
2022-12-16T03:30:59.697Z,-6.03
2022-12-16T03:33:05.152Z,-5.97
2022-12-16T03:35:10.384Z,-5.95
2022-12-16T03:37:15.640Z,-5.93
2022-12-16T03:39:21.076Z,-5.93
2022-12-16T03:41:26.432Z,-5.93
2022-12-16T03:43:32.066Z,-5.9
2022-12-16T03:45:38.615Z,-5.88
2022-12-16T03:47:43.891Z,-5.86
2022-12-16T03:49:49.129Z,-5.84
2022-12-16T03:51:54.320Z,-5.82
2022-12-16T03:53:59.504Z,-5.8
2022-12-16T03:56:04.760Z,-5.82
2022-12-16T03:58:09.800Z,-5.81
2022-12-16T04:00:14.937Z,-5.78
2022-12-16T04:02:20.238Z,-5.78
2022-12-16T04:04:26.857Z,-5.75
2022-12-16T04:06:31.952Z,-5.75
2022-12-16T04:08:40.289Z,-5.73
2022-12-16T04:10:45.892Z,-5.7
2022-12-16T04:12:50.925Z,-5.66
2022-12-16T04:14:56.219Z,-5.64
2022-12-16T04:17:01.413Z,-5.66
2022-12-16T04:19:06.756Z,-5.66
2022-12-16T04:21:12.675Z,-5.61
2022-12-16T04:23:17.801Z,-5.59
2022-12-16T04:25:22.984Z,-5.56
2022-12-16T04:27:27.962Z,-5.56
2022-12-16T04:29:33.140Z,-5.54
2022-12-16T04:31:41.677Z,-5.51
2022-12-16T04:33:46.928Z,-5.52
2022-12-16T04:35:52.236Z,-5.52
2022-12-16T04:37:57.380Z,-5.5
2022-12-16T04:40:04.501Z,-5.47
2022-12-16T04:42:09.580Z,-5.47
2022-12-16T04:44:15.113Z,-5.42
2022-12-16T04:46:20.819Z,-5.41
2022-12-16T04:48:26.046Z,-5.42
2022-12-16T04:50:31.409Z,-5.39
2022-12-16T04:52:36.690Z,-5.38
2022-12-16T04:54:42.114Z,-5.37
2022-12-16T04:56:47.159Z,-5.34
2022-12-16T04:58:52.343Z,-5.32
2022-12-16T05:00:57.596Z,-5.31
2022-12-16T05:03:02.640Z,-5.28
2022-12-16T05:05:08.060Z,-5.27
2022-12-16T05:07:13.346Z,-5.26
2022-12-16T05:09:18.770Z,-5.25
2022-12-16T05:11:24.065Z,-5.25
2022-12-16T05:13:29.530Z,-5.25
2022-12-16T05:15:37.091Z,-5.28
2022-12-16T05:17:42.567Z,-5.26
2022-12-16T05:19:47.654Z,-5.23
2022-12-16T05:21:53.247Z,-5.21
2022-12-16T05:23:59.074Z,-5.21
2022-12-16T05:26:04.822Z,-5.21
2022-12-16T05:28:10.441Z,-5.18
2022-12-16T05:30:16.263Z,-5.17
2022-12-16T05:32:22.131Z,-5.18
2022-12-16T05:34:27.687Z,-5.17
2022-12-16T05:36:33.983Z,-5.15
2022-12-16T05:38:54.155Z,-5.14
2022-12-16T05:41:01.117Z,-5.13
2022-12-16T05:43:20.988Z,-5.13
2022-12-16T05:45:26.519Z,-5.11
2022-12-16T05:47:32.443Z,-5.1
2022-12-16T05:49:39.259Z,-5.05
2022-12-16T05:52:04.079Z,-5.08
2022-12-16T05:54:10.056Z,-5.04
2022-12-16T05:56:26.725Z,-5.01
2022-12-16T05:58:33.189Z,-5
2022-12-16T06:00:38.793Z,-4.99
2022-12-16T06:02:49.427Z,-4.97
2022-12-16T06:04:55.747Z,-4.93
2022-12-16T06:07:04.380Z,-4.94
2022-12-16T06:09:10.974Z,-4.92
2022-12-16T06:11:16.250Z,-4.93
2022-12-16T06:13:21.192Z,-4.87
2022-12-16T06:15:26.372Z,-4.85
2022-12-16T06:17:34.350Z,-4.85
2022-12-16T06:19:39.884Z,-4.82
2022-12-16T06:22:05.501Z,-4.82
2022-12-16T06:24:10.847Z,-4.8
2022-12-16T06:26:29.253Z,-4.77
2022-12-16T06:28:40.059Z,-4.78
2022-12-16T06:31:04.216Z,-4.73
2022-12-16T06:33:12.040Z,-4.73
2022-12-16T06:35:32.562Z,-4.74
2022-12-16T06:37:41.108Z,-4.7
2022-12-16T06:40:20.889Z,-4.69
2022-12-16T06:42:57.893Z,-4.68
2022-12-16T06:45:06.589Z,-4.71
2022-12-16T06:47:12.260Z,-4.7
2022-12-16T06:49:22.981Z,-4.7
2022-12-16T06:51:36.317Z,-4.71
2022-12-16T06:54:02.475Z,-4.64
2022-12-16T06:56:16.318Z,-4.63
2022-12-16T06:58:25.718Z,-4.66
2022-12-16T07:00:54.412Z,-4.66
2022-12-16T07:03:14.805Z,-4.63
2022-12-16T07:06:00.027Z,-4.61
2022-12-16T07:08:31.674Z,-4.61
2022-12-16T07:10:43.617Z,-4.61
2022-12-16T07:12:48.759Z,-4.58
2022-12-16T07:14:55.877Z,-4.58
2022-12-16T07:17:01.102Z,-4.59
2022-12-16T07:19:06.724Z,-4.56
2022-12-16T07:21:12.217Z,-4.5
2022-12-16T07:23:19.932Z,-4.55
2022-12-16T07:25:25.536Z,-4.54
2022-12-16T07:27:30.687Z,-4.49
2022-12-16T07:29:36.288Z,-4.46
2022-12-16T07:31:44.752Z,-4.44
2022-12-16T07:33:52.184Z,-4.45
2022-12-16T07:38:19.984Z,-4.46
2022-12-16T07:40:25.621Z,-4.46
2022-12-16T07:42:31.388Z,-4.48
2022-12-16T07:44:37.016Z,-4.46
2022-12-16T07:46:42.903Z,-4.47
2022-12-16T07:48:48.337Z,-4.5
2022-12-16T07:50:54.908Z,-4.52
2022-12-16T07:53:02.010Z,-4.49
2022-12-16T07:55:07.491Z,-4.45
2022-12-16T07:57:13.986Z,-4.48
2022-12-16T07:59:20.153Z,-4.51
2022-12-16T08:01:26.020Z,-4.43
2022-12-16T08:03:32.685Z,-4.45
2022-12-16T08:05:40.297Z,-4.43
2022-12-16T08:07:45.908Z,-4.41
2022-12-16T08:09:51.495Z,-4.42
2022-12-16T08:11:56.913Z,-4.39
2022-12-16T08:14:02.245Z,-4.44
2022-12-16T08:16:08.039Z,-4.43
2022-12-16T08:18:14.599Z,-4.45
2022-12-16T08:20:21.059Z,-4.38
2022-12-16T08:22:26.255Z,-4.36
2022-12-16T08:24:31.682Z,-4.35
2022-12-16T08:26:37.066Z,-4.42
2022-12-16T08:28:43.272Z,-4.35
2022-12-16T08:30:48.898Z,-4.3
2022-12-16T08:33:03.387Z,-4.33
2022-12-16T08:35:23.540Z,-4.27
2022-12-16T08:37:29.271Z,-4.2
2022-12-16T08:39:36.358Z,-4.13
2022-12-16T08:41:42.804Z,-4.11
2022-12-16T08:43:49.113Z,-4.17
2022-12-16T08:45:56.961Z,-4.22
2022-12-16T08:48:05.529Z,-4.2
2022-12-16T08:50:10.944Z,-4.19
2022-12-16T08:52:16.456Z,-4.13
2022-12-16T08:54:22.435Z,-4.13
2022-12-16T08:56:27.928Z,-4.18
2022-12-16T08:58:33.542Z,-4.17
2022-12-16T09:00:39.494Z,-4.1
2022-12-16T09:02:45.110Z,-4.07
2022-12-16T09:04:55.440Z,-4.04
2022-12-16T09:07:00.906Z,-4.03
2022-12-16T09:09:10.419Z,-3.95
2022-12-16T09:11:19.918Z,-3.96
2022-12-16T09:13:26.170Z,-3.9
2022-12-16T09:15:32.243Z,-3.95
2022-12-16T09:17:38.018Z,-3.91
2022-12-16T09:19:43.832Z,-3.93
2022-12-16T09:21:49.347Z,-3.91
2022-12-16T09:23:56.639Z,-3.88
2022-12-16T09:26:03.529Z,-3.85
2022-12-16T09:28:09.819Z,-3.87
2022-12-16T09:30:16.989Z,-3.91
2022-12-16T09:32:23.384Z,-3.92
2022-12-16T09:34:29.409Z,-3.85
2022-12-16T09:36:35.574Z,-3.85
2022-12-16T09:38:41.687Z,-3.89
2022-12-16T09:40:47.655Z,-3.86
2022-12-16T09:42:52.965Z,-3.9
2022-12-16T09:45:02.208Z,-3.86
2022-12-16T09:47:08.940Z,-3.83
2022-12-16T09:49:14.560Z,-3.73
2022-12-16T09:51:20.510Z,-3.76
2022-12-16T09:53:26.636Z,-3.75
2022-12-16T09:55:33.067Z,-3.78
2022-12-16T09:57:38.601Z,-3.79
2022-12-16T09:59:53.186Z,-3.78
2022-12-16T10:01:59.562Z,-3.77
2022-12-16T10:04:06.862Z,-3.69
2022-12-16T10:06:12.516Z,-3.7
2022-12-16T10:08:19.157Z,-3.64
2022-12-16T10:10:25.505Z,-3.69
2022-12-16T10:12:31.118Z,-3.75
2022-12-16T10:14:36.366Z,-3.69
2022-12-16T10:16:44.250Z,-3.57
2022-12-16T10:21:17.080Z,-3.51
2022-12-16T10:23:24.332Z,-3.48
2022-12-16T10:25:29.574Z,-3.43
2022-12-16T10:27:35.066Z,-3.4
2022-12-16T10:29:40.447Z,-3.42
2022-12-16T10:31:46.674Z,-3.42
2022-12-16T10:33:52.945Z,-3.41
2022-12-16T10:36:06.160Z,-3.38
2022-12-16T10:38:12.092Z,-3.25
2022-12-16T10:40:17.811Z,-3.2
2022-12-16T10:42:24.598Z,-3.18
2022-12-16T10:44:31.903Z,-3.18
2022-12-16T10:46:37.422Z,-3.09
2022-12-16T10:48:51.342Z,-3.18
2022-12-16T10:51:02.751Z,-3.16
2022-12-16T10:53:09.287Z,-3.11
2022-12-16T10:55:16.347Z,-3.03
2022-12-16T10:57:25.345Z,-3.02
2022-12-16T10:59:31.550Z,-2.95
2022-12-16T11:01:38.032Z,-2.97
2022-12-16T11:03:44.370Z,-2.89
2022-12-16T11:05:50.914Z,-2.89
2022-12-16T11:08:09.366Z,-2.87
2022-12-16T11:10:19.912Z,-2.87
2022-12-16T11:12:29.318Z,-2.94
2022-12-16T11:14:38.678Z,-2.85
2022-12-16T11:17:34.176Z,-2.79
2022-12-16T11:19:41.842Z,-2.73
2022-12-16T11:21:48.510Z,-2.71
2022-12-16T11:23:57.260Z,-2.73
2022-12-16T11:26:06.852Z,-2.7
2022-12-16T11:28:13.632Z,-2.77
2022-12-16T11:30:25.469Z,-2.77
2022-12-16T11:32:31.961Z,-2.71
2022-12-16T11:34:41.852Z,-2.65
2022-12-16T11:36:48.415Z,-2.58
2022-12-16T11:38:58.338Z,-2.6
2022-12-16T11:41:07.629Z,-2.58
2022-12-16T11:43:26.746Z,-2.55
2022-12-16T11:45:34.367Z,-2.64
2022-12-16T11:47:40.407Z,-2.59
2022-12-16T11:49:47.398Z,-2.57
2022-12-16T11:52:21.105Z,-2.52
2022-12-16T11:54:43.126Z,-2.47
2022-12-16T11:56:49.725Z,-2.5
2022-12-16T11:58:57.133Z,-2.56
2022-12-16T12:01:04.414Z,-2.42
2022-12-16T12:03:10.883Z,-2.39
2022-12-16T12:05:17.791Z,-2.36
2022-12-16T12:07:25.164Z,-2.42
2022-12-16T12:09:35.068Z,-2.33
2022-12-16T12:11:41.391Z,-2.43
2022-12-16T12:13:47.901Z,-2.4
2022-12-16T12:15:58.471Z,-2.42
2022-12-16T12:18:04.830Z,-2.47
2022-12-16T12:20:11.207Z,-2.41
2022-12-16T12:22:19.362Z,-2.42
2022-12-16T12:24:27.040Z,-2.51
2022-12-16T12:26:34.857Z,-2.41
2022-12-16T12:28:41.136Z,-2.4
2022-12-16T12:30:49.577Z,-2.34
2022-12-16T12:32:59.031Z,-2.3
2022-12-16T12:35:07.281Z,-2.26
2022-12-16T12:37:12.992Z,-2.3
2022-12-16T12:39:25.107Z,-2.19
2022-12-16T12:41:31.269Z,-2.26
2022-12-16T12:43:43.032Z,-2.15
2022-12-16T12:45:53.128Z,-2.16
2022-12-16T12:48:02.885Z,-2.18
2022-12-16T12:50:14.539Z,-2.19
2022-12-16T12:52:20.978Z,-2.3
2022-12-16T12:54:32.986Z,-2.31
2022-12-16T12:56:42.802Z,-2.27
2022-12-16T13:02:19.279Z,-2.34
2022-12-16T13:08:14.486Z,-2.3
2022-12-16T13:14:07.833Z,-2.43
2022-12-16T13:16:54.640Z,-2.51
2022-12-16T13:22:43.887Z,-2.43
2022-12-16T13:27:45.727Z,-2.45
2022-12-16T13:30:06.132Z,-2.42
2022-12-16T13:32:12.741Z,-2.45
2022-12-16T13:45:13.993Z,-2.49
2022-12-16T13:47:20.248Z,-2.49
2022-12-16T13:49:26.655Z,-2.5
2022-12-16T14:03:38.667Z,-2.54
2022-12-16T14:08:31.247Z,-2.58
2022-12-16T14:10:40.128Z,-2.57
2022-12-16T14:27:41.502Z,-2.66
2022-12-16T14:29:49.396Z,-2.68
2022-12-16T14:31:55.320Z,-2.66
2022-12-16T14:34:02.419Z,-2.68
2022-12-16T14:36:08.781Z,-2.67
2022-12-16T14:38:16.609Z,-2.67
2022-12-16T14:40:22.914Z,-2.66
2022-12-16T14:42:29.280Z,-2.68
2022-12-16T14:44:38.058Z,-2.74
2022-12-16T14:46:44.935Z,-2.68
2022-12-16T14:48:57.232Z,-2.72
2022-12-16T14:51:03.824Z,-2.66
2022-12-16T14:55:38.470Z,-2.7
2022-12-16T14:57:46.076Z,-2.74
2022-12-16T14:59:57.801Z,-2.7
2022-12-16T15:02:04.173Z,-2.7
2022-12-16T15:04:11.542Z,-2.7
2022-12-16T15:06:19.482Z,-2.7
2022-12-16T15:08:26.222Z,-2.68
2022-12-16T15:10:32.188Z,-2.71
2022-12-16T15:12:44.219Z,-2.71
2022-12-16T15:14:54.102Z,-2.77
2022-12-16T15:17:02.375Z,-2.74
2022-12-16T15:19:09.552Z,-2.7
2022-12-16T15:21:17.985Z,-2.69
2022-12-16T15:23:24.251Z,-2.72
2022-12-16T15:25:31.809Z,-2.76
2022-12-16T15:27:38.417Z,-2.78
2022-12-16T15:29:44.553Z,-2.83
2022-12-16T15:31:55.290Z,-2.82
2022-12-16T15:34:10.859Z,-2.86
2022-12-16T15:36:18.843Z,-2.88
2022-12-16T15:38:25.412Z,-2.88
2022-12-16T15:40:31.660Z,-2.88
2022-12-16T15:42:37.879Z,-2.94
2022-12-16T15:44:44.533Z,-2.94
2022-12-16T15:46:51.097Z,-2.93
2022-12-16T15:51:30.191Z,-2.95
2022-12-16T15:53:37.174Z,-2.95
2022-12-16T15:55:45.403Z,-2.97
2022-12-16T15:57:51.595Z,-2.98
2022-12-16T15:59:59.910Z,-2.99
2022-12-16T16:02:06.958Z,-2.99
2022-12-16T16:04:14.109Z,-2.99
2022-12-16T16:06:20.888Z,-3.02
2022-12-16T16:08:27.206Z,-3.04
2022-12-16T16:10:33.537Z,-3.03
2022-12-16T16:12:40.045Z,-3.05
2022-12-16T16:26:42.044Z,-3.18
2022-12-16T16:31:24.630Z,-3.14
2022-12-16T16:33:33.063Z,-3.11
2022-12-16T16:35:44.359Z,-3.12
2022-12-16T16:37:51.186Z,-3.12
2022-12-16T16:39:57.711Z,-3.13
2022-12-16T16:42:04.232Z,-3.13
2022-12-16T16:44:18.038Z,-3.15
2022-12-16T16:46:27.014Z,-3.09
2022-12-16T16:48:34.201Z,-3.12
2022-12-16T16:50:44.033Z,-3.12
2022-12-16T16:52:50.652Z,-3.15
2022-12-16T16:54:56.999Z,-3.14
2022-12-16T16:57:04.429Z,-3.16
2022-12-16T16:59:12.815Z,-3.16
2022-12-16T17:03:49.454Z,-3.15
2022-12-16T17:05:57.672Z,-3.16
2022-12-16T17:08:03.861Z,-3.17
2022-12-16T17:10:11.209Z,-3.16
2022-12-16T17:12:18.185Z,-3.19
2022-12-16T17:14:24.351Z,-3.2
2022-12-16T17:16:34.317Z,-3.19
2022-12-16T17:18:45.740Z,-3.19
2022-12-16T17:21:02.098Z,-3.24
2022-12-16T17:23:10.663Z,-3.23
2022-12-16T17:25:17.048Z,-3.22
2022-12-16T17:27:26.972Z,-3.21
2022-12-16T17:29:33.301Z,-3.23
2022-12-16T17:31:39.805Z,-3.2
2022-12-16T17:33:46.506Z,-3.23
2022-12-16T17:35:53.085Z,-3.21
2022-12-16T17:38:00.651Z,-3.21
2022-12-16T17:40:09.716Z,-3.23
2022-12-16T17:42:18.249Z,-3.23
2022-12-16T17:44:25.306Z,-3.22
2022-12-16T17:46:32.747Z,-3.21
2022-12-16T17:48:45.393Z,-3.21
2022-12-16T17:50:52.929Z,-3.19
2022-12-16T17:52:59.498Z,-3.25
2022-12-16T17:55:06.327Z,-3.26
2022-12-16T17:57:13.438Z,-3.25
2022-12-16T17:59:24.313Z,-3.26
2022-12-16T18:01:33.024Z,-3.27
2022-12-16T18:03:43.241Z,-3.24
2022-12-16T18:05:56.033Z,-3.27
2022-12-16T18:08:03.217Z,-3.24
2022-12-16T18:10:10.389Z,-3.28
2022-12-16T18:12:19.479Z,-3.29
2022-12-16T18:14:26.526Z,-3.28
2022-12-16T18:16:33.407Z,-3.26
2022-12-16T18:18:45.987Z,-3.29
2022-12-16T18:20:53.677Z,-3.27
2022-12-16T18:23:00.113Z,-3.26
2022-12-16T18:25:06.339Z,-3.29
2022-12-16T18:27:12.993Z,-3.33
2022-12-16T18:29:21.390Z,-3.29
2022-12-16T18:31:32.014Z,-3.29
2022-12-16T18:33:41.244Z,-3.32
2022-12-16T18:35:55.438Z,-3.28
2022-12-16T18:38:02.870Z,-3.3
2022-12-16T18:40:18.704Z,-3.29
2022-12-16T18:42:27.975Z,-3.31
2022-12-16T18:44:39.329Z,-3.3
2022-12-16T18:46:47.676Z,-3.32
2022-12-16T18:49:02.520Z,-3.33
2022-12-16T18:51:14.202Z,-3.36
2022-12-16T18:53:23.395Z,-3.38
2022-12-16T18:55:31.179Z,-3.39
2022-12-16T18:57:39.908Z,-3.36
2022-12-16T18:59:56.216Z,-3.33
2022-12-16T19:02:05.457Z,-3.34
2022-12-16T19:04:15.259Z,-3.36
2022-12-16T19:06:22.026Z,-3.37
2022-12-16T19:08:43.791Z,-3.36
2022-12-16T19:11:05.671Z,-3.36
2022-12-16T19:13:16.231Z,-3.38
2022-12-16T19:15:24.924Z,-3.35
2022-12-16T19:17:32.861Z,-3.36
2022-12-16T19:19:42.360Z,-3.36
2022-12-16T19:21:51.991Z,-3.35
2022-12-16T19:24:05.551Z,-3.35
2022-12-16T19:26:15.271Z,-3.34
2022-12-16T19:28:28.559Z,-3.37
2022-12-16T20:08:00.445Z,-3.4
2022-12-16T20:23:33.477Z,-3.4
2022-12-16T20:46:46.022Z,-3.38
2022-12-16T20:49:42.471Z,-3.37
2022-12-16T20:54:21.047Z,-3.4
2022-12-16T20:56:28.074Z,-3.45
2022-12-16T21:04:40.161Z,-3.41
2022-12-16T21:06:48.518Z,-3.42
2022-12-16T21:08:58.178Z,-3.39
2022-12-16T21:11:05.271Z,-3.41
2022-12-16T21:13:12.217Z,-3.37
2022-12-16T21:15:20.769Z,-3.4
2022-12-16T21:17:28.219Z,-3.42
2022-12-16T21:19:34.064Z,-3.42
2022-12-16T21:21:40.218Z,-3.4
2022-12-16T21:23:47.355Z,-3.41
2022-12-16T21:25:55.874Z,-3.37
2022-12-16T21:28:02.625Z,-3.37
2022-12-16T21:30:08.615Z,-3.38
2022-12-16T21:32:15.782Z,-3.42
2022-12-16T21:34:25.249Z,-3.37
2022-12-16T21:36:32.070Z,-3.41
2022-12-16T21:38:37.618Z,-3.4
2022-12-16T21:40:43.927Z,-3.39
2022-12-16T21:42:51.866Z,-3.41
2022-12-16T21:45:02.986Z,-3.41
2022-12-16T21:47:09.538Z,-3.38
2022-12-16T21:49:18.190Z,-3.36
2022-12-16T21:51:28.768Z,-3.36
2022-12-16T21:53:39.518Z,-3.38
2022-12-16T21:58:14.188Z,-3.36
2022-12-16T22:00:19.980Z,-3.39
2022-12-16T22:02:25.808Z,-3.35
2022-12-16T22:04:31.852Z,-3.34
2022-12-16T22:06:38.709Z,-3.35
2022-12-16T22:08:52.624Z,-3.3
2022-12-16T22:11:02.469Z,-3.35
2022-12-16T22:13:08.298Z,-3.33
2022-12-16T22:15:13.985Z,-3.35
2022-12-16T22:17:19.624Z,-3.35
2022-12-16T22:19:27.610Z,-3.33
2022-12-16T22:21:33.568Z,-3.34
2022-12-16T22:23:39.597Z,-3.35
2022-12-16T22:25:52.055Z,-3.33
2022-12-16T22:28:00.581Z,-3.31
2022-12-16T22:30:06.226Z,-3.32
2022-12-16T22:32:12.881Z,-3.28
2022-12-16T22:34:18.604Z,-3.31
2022-12-16T22:36:24.043Z,-3.31
2022-12-16T22:38:30.023Z,-3.35
2022-12-16T22:40:37.416Z,-3.3
2022-12-16T22:42:47.400Z,-3.3
2022-12-16T22:44:56.392Z,-3.29
2022-12-16T22:47:02.461Z,-3.28
2022-12-16T22:49:09.277Z,-3.25
2022-12-16T22:51:15.437Z,-3.29
2022-12-16T22:53:22.679Z,-3.3
2022-12-16T22:55:28.141Z,-3.28
2022-12-16T22:57:36.065Z,-3.37
2022-12-16T22:59:41.778Z,-3.35
2022-12-16T23:01:47.622Z,-3.35
2022-12-16T23:03:56.396Z,-3.35
2022-12-16T23:08:30.223Z,-3.35
2022-12-16T23:10:36.109Z,-3.33
2022-12-16T23:12:42.524Z,-3.35
2022-12-16T23:14:48.966Z,-3.35
2022-12-16T23:16:55.712Z,-3.43
2022-12-16T23:19:02.193Z,-3.44
2022-12-16T23:21:08.020Z,-3.42
2022-12-16T23:23:15.895Z,-3.41
2022-12-16T23:25:21.258Z,-3.44
2022-12-16T23:27:27.139Z,-3.49
2022-12-16T23:29:33.046Z,-3.49
2022-12-16T23:31:39.805Z,-3.51
2022-12-16T23:33:46.217Z,-3.49
2022-12-16T23:38:12.924Z,-3.49
2022-12-16T23:40:19.447Z,-3.52
2022-12-16T23:42:27.555Z,-3.53
2022-12-16T23:44:33.103Z,-3.51
2022-12-16T23:49:00.925Z,-3.51
2022-12-16T23:51:06.869Z,-3.53
2022-12-16T23:53:13.009Z,-3.57
2022-12-16T23:55:18.558Z,-3.59
2022-12-16T23:57:24.316Z,-3.56
2022-12-16T23:59:30.106Z,-3.57
